sensor_id;sensor_type;location;lat;lon;timestamp;pressure;altitude;pressure_sealevel;temperature;humidity
70133;BME280;57495;49.922;7.966;2023-04-09T00:01:29;100801.56;;;7.93;85.21
70133;BME280;57495;49.922;7.966;2023-04-09T00:03:32;100790.50;;;8.00;84.99
70133;BME280;57495;49.922;7.966;2023-04-09T00:05:37;100793.47;;;7.95;84.86
70133;BME280;57495;49.922;7.966;2023-04-09T00:07:39;100786.56;;;7.92;85.24
70133;BME280;57495;49.922;7.966;2023-04-09T00:09:40;100796.75;;;7.86;85.35
70133;BME280;57495;49.922;7.966;2023-04-09T00:11:42;100785.81;;;7.90;85.13
70133;BME280;57495;49.922;7.966;2023-04-09T00:13:43;100786.75;;;7.89;85.57
70133;BME280;57495;49.922;7.966;2023-04-09T00:15:46;100791.78;;;7.94;85.24
70133;BME280;57495;49.922;7.966;2023-04-09T00:17:47;100790.78;;;7.95;85.06
70133;BME280;57495;49.922;7.966;2023-04-09T00:19:49;100779.59;;;8.03;84.84
70133;BME280;57495;49.922;7.966;2023-04-09T00:21:51;100781.22;;;8.05;84.08
70133;BME280;57495;49.922;7.966;2023-04-09T00:23:52;100785.56;;;8.06;84.51
70133;BME280;57495;49.922;7.966;2023-04-09T00:25:54;100775.16;;;8.03;84.18
70133;BME280;57495;49.922;7.966;2023-04-09T00:27:55;100774.81;;;7.95;84.80
70133;BME280;57495;49.922;7.966;2023-04-09T00:29:57;100770.97;;;7.86;85.76
70133;BME280;57495;49.922;7.966;2023-04-09T00:32:00;100772.69;;;7.87;86.31
70133;BME280;57495;49.922;7.966;2023-04-09T00:34:01;100772.16;;;7.82;86.98
70133;BME280;57495;49.922;7.966;2023-04-09T00:36:03;100768.94;;;7.77;87.03
70133;BME280;57495;49.922;7.966;2023-04-09T00:38:05;100773.13;;;7.68;87.94
70133;BME280;57495;49.922;7.966;2023-04-09T00:40:07;100766.63;;;7.72;88.36
70133;BME280;57495;49.922;7.966;2023-04-09T00:42:08;100771.94;;;7.72;87.70
70133;BME280;57495;49.922;7.966;2023-04-09T00:44:10;100765.34;;;7.78;87.19
70133;BME280;57495;49.922;7.966;2023-04-09T00:46:11;100767.81;;;7.81;86.89
70133;BME280;57495;49.922;7.966;2023-04-09T00:48:15;100767.81;;;7.81;86.28
70133;BME280;57495;49.922;7.966;2023-04-09T00:50:17;100762.47;;;7.81;86.93
70133;BME280;57495;49.922;7.966;2023-04-09T00:52:18;100761.50;;;7.82;87.01
70133;BME280;57495;49.922;7.966;2023-04-09T00:54:20;100765.16;;;7.81;87.82
70133;BME280;57495;49.922;7.966;2023-04-09T00:56:22;100757.78;;;7.72;88.40
70133;BME280;57495;49.922;7.966;2023-04-09T00:58:24;100765.34;;;7.65;89.25
70133;BME280;57495;49.922;7.966;2023-04-09T01:00:26;100764.25;;;7.68;89.09
70133;BME280;57495;49.922;7.966;2023-04-09T01:02:27;100760.00;;;7.65;89.18
70133;BME280;57495;49.922;7.966;2023-04-09T01:04:31;100766.50;;;7.61;89.20
70133;BME280;57495;49.922;7.966;2023-04-09T01:06:38;100760.00;;;7.65;88.68
70133;BME280;57495;49.922;7.966;2023-04-09T01:08:48;100761.28;;;7.60;88.65
70133;BME280;57495;49.922;7.966;2023-04-09T01:10:55;100750.44;;;7.63;88.42
70133;BME280;57495;49.922;7.966;2023-04-09T01:13:05;100756.72;;;7.62;88.11
70133;BME280;57495;49.922;7.966;2023-04-09T01:15:08;100763.50;;;7.53;88.25
70133;BME280;57495;49.922;7.966;2023-04-09T01:17:15;100761.50;;;7.57;88.08
70133;BME280;57495;49.922;7.966;2023-04-09T01:19:26;100757.13;;;7.55;87.97
70133;BME280;57495;49.922;7.966;2023-04-09T01:21:34;100749.91;;;7.58;87.60
70133;BME280;57495;49.922;7.966;2023-04-09T01:23:44;100757.88;;;7.58;87.13
70133;BME280;57495;49.922;7.966;2023-04-09T01:26:00;100753.50;;;7.57;86.78
70133;BME280;57495;49.922;7.966;2023-04-09T01:28:18;100753.09;;;7.63;86.78
70133;BME280;57495;49.922;7.966;2023-04-09T01:30:23;100761.84;;;7.65;86.33
70133;BME280;57495;49.922;7.966;2023-04-09T01:32:26;100757.44;;;7.64;86.21
70133;BME280;57495;49.922;7.966;2023-04-09T01:34:32;100761.19;;;7.74;86.46
70133;BME280;57495;49.922;7.966;2023-04-09T01:36:34;100763.13;;;7.72;85.77
70133;BME280;57495;49.922;7.966;2023-04-09T01:38:40;100768.09;;;7.64;86.50
70133;BME280;57495;49.922;7.966;2023-04-09T01:40:42;100767.91;;;7.67;86.93
70133;BME280;57495;49.922;7.966;2023-04-09T01:42:44;100766.41;;;7.76;87.88
70133;BME280;57495;49.922;7.966;2023-04-09T01:44:48;100762.13;;;7.73;88.10
70133;BME280;57495;49.922;7.966;2023-04-09T01:46:50;100767.06;;;7.79;88.50
70133;BME280;57495;49.922;7.966;2023-04-09T01:48:52;100775.34;;;7.87;87.82
70133;BME280;57495;49.922;7.966;2023-04-09T01:50:55;100775.16;;;7.90;87.29
70133;BME280;57495;49.922;7.966;2023-04-09T01:52:57;100773.22;;;7.92;87.64
70133;BME280;57495;49.922;7.966;2023-04-09T01:54:58;100778.66;;;7.91;87.92
70133;BME280;57495;49.922;7.966;2023-04-09T01:57:00;100768.09;;;7.89;88.01
70133;BME280;57495;49.922;7.966;2023-04-09T01:59:01;100784.72;;;7.93;87.65
70133;BME280;57495;49.922;7.966;2023-04-09T02:01:08;100777.59;;;7.93;87.70
70133;BME280;57495;49.922;7.966;2023-04-09T02:03:15;100778.56;;;7.92;87.56
70133;BME280;57495;49.922;7.966;2023-04-09T02:05:19;100772.59;;;7.89;88.13
70133;BME280;57495;49.922;7.966;2023-04-09T02:07:27;100781.97;;;7.94;88.50
70133;BME280;57495;49.922;7.966;2023-04-09T02:09:33;100785.38;;;7.97;89.16
70133;BME280;57495;49.922;7.966;2023-04-09T02:11:37;100785.38;;;7.97;88.13
70133;BME280;57495;49.922;7.966;2023-04-09T02:13:41;100780.69;;;8.00;88.80
70133;BME280;57495;49.922;7.966;2023-04-09T02:15:44;100782.59;;;7.98;88.97
70133;BME280;57495;49.922;7.966;2023-04-09T02:17:48;100784.28;;;7.99;89.16
70133;BME280;57495;49.922;7.966;2023-04-09T02:19:50;100780.47;;;8.03;88.60
70133;BME280;57495;49.922;7.966;2023-04-09T02:21:52;100774.91;;;8.06;88.62
70133;BME280;57495;49.922;7.966;2023-04-09T02:23:53;100778.66;;;8.04;89.43
70133;BME280;57495;49.922;7.966;2023-04-09T02:25:55;100776.31;;;7.99;89.25
70133;BME280;57495;49.922;7.966;2023-04-09T02:27:56;100770.88;;;8.01;89.16
70133;BME280;57495;49.922;7.966;2023-04-09T02:29:58;100774.50;;;8.00;88.54
70133;BME280;57495;49.922;7.966;2023-04-09T02:31:59;100770.34;;;7.96;87.35
70133;BME280;57495;49.922;7.966;2023-04-09T02:34:02;100773.44;;;8.02;88.87
70133;BME280;57495;49.922;7.966;2023-04-09T02:36:04;100778.13;;;7.99;88.63
70133;BME280;57495;49.922;7.966;2023-04-09T02:38:08;100774.28;;;8.03;89.38
70133;BME280;57495;49.922;7.966;2023-04-09T02:40:12;100776.00;;;8.04;90.00
70133;BME280;57495;49.922;7.966;2023-04-09T02:42:14;100779.06;;;7.98;88.11
70133;BME280;57495;49.922;7.966;2023-04-09T02:44:15;100781.72;;;7.98;88.08
70133;BME280;57495;49.922;7.966;2023-04-09T02:46:17;100774.72;;;7.97;88.73
70133;BME280;57495;49.922;7.966;2023-04-09T02:48:18;100779.19;;;7.96;88.42
70133;BME280;57495;49.922;7.966;2023-04-09T02:50:21;100781.72;;;7.98;88.18
70133;BME280;57495;49.922;7.966;2023-04-09T02:52:23;100786.22;;;7.97;88.25
70133;BME280;57495;49.922;7.966;2023-04-09T02:54:25;100781.88;;;7.96;88.55
70133;BME280;57495;49.922;7.966;2023-04-09T02:56:26;100780.78;;;7.99;89.69
70133;BME280;57495;49.922;7.966;2023-04-09T02:58:28;100775.56;;;7.97;90.25
70133;BME280;57495;49.922;7.966;2023-04-09T03:00:29;100784.53;;;7.96;90.92
70133;BME280;57495;49.922;7.966;2023-04-09T03:02:30;100780.03;;;7.97;90.00
70133;BME280;57495;49.922;7.966;2023-04-09T03:04:32;100782.91;;;7.93;90.02
70133;BME280;57495;49.922;7.966;2023-04-09T03:06:35;100781.97;;;7.94;89.81
70133;BME280;57495;49.922;7.966;2023-04-09T03:08:36;100779.19;;;7.96;89.77
70133;BME280;57495;49.922;7.966;2023-04-09T03:10:37;100774.06;;;7.93;90.45
70133;BME280;57495;49.922;7.966;2023-04-09T03:12:39;100774.91;;;7.93;88.63
70133;BME280;57495;49.922;7.966;2023-04-09T03:14:43;100766.94;;;7.93;88.10
70133;BME280;57495;49.922;7.966;2023-04-09T03:16:45;100766.41;;;7.88;88.25
70133;BME280;57495;49.922;7.966;2023-04-09T03:18:46;100763.75;;;7.88;87.51
70133;BME280;57495;49.922;7.966;2023-04-09T03:20:48;100765.16;;;7.81;88.48
70133;BME280;57495;49.922;7.966;2023-04-09T03:22:50;100762.59;;;7.80;87.89
70133;BME280;57495;49.922;7.966;2023-04-09T03:24:52;100758.53;;;7.74;87.53
70133;BME280;57495;49.922;7.966;2023-04-09T03:26:53;100756.81;;;7.73;87.37
70133;BME280;57495;49.922;7.966;2023-04-09T03:28:55;100757.56;;;7.75;86.98
70133;BME280;57495;49.922;7.966;2023-04-09T03:30:57;100752.78;;;7.67;87.39
70133;BME280;57495;49.922;7.966;2023-04-09T03:32:58;100748.72;;;7.74;87.29
70133;BME280;57495;49.922;7.966;2023-04-09T03:34:59;100755.97;;;7.60;87.29
70133;BME280;57495;49.922;7.966;2023-04-09T03:37:01;100745.63;;;7.68;87.52
70133;BME280;57495;49.922;7.966;2023-04-09T03:39:04;100751.72;;;7.70;86.86
70133;BME280;57495;49.922;7.966;2023-04-09T03:41:05;100745.63;;;7.68;86.85
70133;BME280;57495;49.922;7.966;2023-04-09T03:43:06;100746.41;;;7.57;88.72
70133;BME280;57495;49.922;7.966;2023-04-09T03:45:08;100750.00;;;7.56;89.04
70133;BME280;57495;49.922;7.966;2023-04-09T03:47:10;100740.19;;;7.57;89.41
70133;BME280;57495;49.922;7.966;2023-04-09T03:49:11;100742.09;;;7.42;86.98
70133;BME280;57495;49.922;7.966;2023-04-09T03:51:14;100745.41;;;7.45;87.82
70133;BME280;57495;49.922;7.966;2023-04-09T03:53:15;100739.69;;;7.51;85.83
70133;BME280;57495;49.922;7.966;2023-04-09T03:55:18;100737.13;;;7.63;85.22
70133;BME280;57495;49.922;7.966;2023-04-09T03:57:20;100742.13;;;7.54;84.19
70133;BME280;57495;49.922;7.966;2023-04-09T03:59:21;100740.19;;;7.57;84.18
70133;BME280;57495;49.922;7.966;2023-04-09T04:01:23;100738.50;;;7.55;84.04
70133;BME280;57495;49.922;7.966;2023-04-09T04:03:24;100733.19;;;7.43;83.91
70133;BME280;57495;49.922;7.966;2023-04-09T04:05:26;100730.41;;;7.31;83.99
70133;BME280;57495;49.922;7.966;2023-04-09T04:07:27;100738.13;;;7.22;84.29
70133;BME280;57495;49.922;7.966;2023-04-09T04:09:28;100740.38;;;7.15;85.09
70133;BME280;57495;49.922;7.966;2023-04-09T04:11:31;100740.56;;;7.12;84.96
70133;BME280;57495;49.922;7.966;2023-04-09T04:13:33;100736.97;;;7.13;84.57
70133;BME280;57495;49.922;7.966;2023-04-09T04:15:38;100735.34;;;7.10;84.75
70133;BME280;57495;49.922;7.966;2023-04-09T04:17:40;100740.75;;;6.96;85.03
70133;BME280;57495;49.922;7.966;2023-04-09T04:19:41;100745.00;;;6.99;84.78
70133;BME280;57495;49.922;7.966;2023-04-09T04:21:43;100746.50;;;6.75;85.54
70133;BME280;57495;49.922;7.966;2023-04-09T04:23:44;100753.66;;;6.88;86.35
70133;BME280;57495;49.922;7.966;2023-04-09T04:25:45;100751.56;;;6.93;86.06
70133;BME280;57495;49.922;7.966;2023-04-09T04:27:48;100754.13;;;6.94;85.31
70133;BME280;57495;49.922;7.966;2023-04-09T04:29:50;100760.44;;;6.79;85.49
70133;BME280;57495;49.922;7.966;2023-04-09T04:31:51;100747.75;;;6.70;85.86
70133;BME280;57495;49.922;7.966;2023-04-09T04:33:52;100758.88;;;6.62;86.61
70133;BME280;57495;49.922;7.966;2023-04-09T04:36:03;100752.97;;;6.71;87.16
70133;BME280;57495;49.922;7.966;2023-04-09T04:38:05;100753.63;;;6.48;86.66
70133;BME280;57495;49.922;7.966;2023-04-09T04:40:07;100754.41;;;6.35;87.63
70133;BME280;57495;49.922;7.966;2023-04-09T04:42:09;100751.81;;;6.48;87.57
70133;BME280;57495;49.922;7.966;2023-04-09T04:44:12;100759.47;;;6.53;87.23
70133;BME280;57495;49.922;7.966;2023-04-09T04:46:13;100759.84;;;6.61;87.15
70133;BME280;57495;49.922;7.966;2023-04-09T04:48:15;100766.94;;;6.19;88.37
70133;BME280;57495;49.922;7.966;2023-04-09T04:50:16;100760.28;;;6.41;87.02
70133;BME280;57495;49.922;7.966;2023-04-09T04:52:18;100762.38;;;6.35;87.78
70133;BME280;57495;49.922;7.966;2023-04-09T04:54:19;100770.34;;;6.35;87.75
70133;BME280;57495;49.922;7.966;2023-04-09T04:56:21;100767.00;;;6.32;88.23
70133;BME280;57495;49.922;7.966;2023-04-09T04:58:23;100764.34;;;6.32;87.26
70133;BME280;57495;49.922;7.966;2023-04-09T05:00:26;100761.97;;;6.42;87.10
70133;BME280;57495;49.922;7.966;2023-04-09T05:02:27;100773.00;;;6.35;86.64
70133;BME280;57495;49.922;7.966;2023-04-09T05:04:29;100769.28;;;6.38;86.44
70133;BME280;57495;49.922;7.966;2023-04-09T05:06:30;100769.56;;;6.33;85.80
70133;BME280;57495;49.922;7.966;2023-04-09T05:08:32;100775.66;;;6.35;85.68
70133;BME280;57495;49.922;7.966;2023-04-09T05:10:34;100773.16;;;6.32;86.05
70133;BME280;57495;49.922;7.966;2023-04-09T05:12:35;100780.00;;;6.36;85.89
70133;BME280;57495;49.922;7.966;2023-04-09T05:14:37;100776.78;;;6.31;85.21
70133;BME280;57495;49.922;7.966;2023-04-09T05:16:39;100776.22;;;6.41;84.73
70133;BME280;57495;49.922;7.966;2023-04-09T05:18:41;100780.63;;;7.36;100.00
70133;BME280;57495;49.922;7.966;2023-04-09T05:20:42;100779.81;;;7.61;99.08
70133;BME280;57495;49.922;7.966;2023-04-09T05:22:44;100771.63;;;7.77;97.46
70133;BME280;57495;49.922;7.966;2023-04-09T05:24:45;100770.78;;;7.89;96.04
70133;BME280;57495;49.922;7.966;2023-04-09T05:26:46;100770.84;;;8.26;94.60
70133;BME280;57495;49.922;7.966;2023-04-09T05:28:48;100774.25;;;8.28;91.89
70133;BME280;57495;49.922;7.966;2023-04-09T05:30:50;100773.09;;;8.69;93.71
70133;BME280;57495;49.922;7.966;2023-04-09T05:32:53;100776.19;;;8.01;81.39
70133;BME280;57495;49.922;7.966;2023-04-09T05:34:55;100771.94;;;7.60;79.49
70133;BME280;57495;49.922;7.966;2023-04-09T05:36:56;100778.50;;;7.41;80.58
70133;BME280;57495;49.922;7.966;2023-04-09T05:38:57;100783.16;;;7.25;81.12
70133;BME280;57495;49.922;7.966;2023-04-09T05:40:59;100774.84;;;7.16;81.45
70133;BME280;57495;49.922;7.966;2023-04-09T05:43:00;100781.09;;;7.15;83.71
70133;BME280;57495;49.922;7.966;2023-04-09T05:45:02;100779.59;;;7.11;82.93
70133;BME280;57495;49.922;7.966;2023-04-09T05:47:04;100784.19;;;7.09;82.42
70133;BME280;57495;49.922;7.966;2023-04-09T05:49:06;100778.50;;;7.01;82.80
70133;BME280;57495;49.922;7.966;2023-04-09T05:51:08;100776.94;;;7.11;82.81
70133;BME280;57495;49.922;7.966;2023-04-09T05:53:09;100778.84;;;7.09;83.18
70133;BME280;57495;49.922;7.966;2023-04-09T05:55:11;100777.38;;;7.05;83.74
70133;BME280;57495;49.922;7.966;2023-04-09T05:57:13;100784.59;;;7.16;84.66
70133;BME280;57495;49.922;7.966;2023-04-09T05:59:15;100788.03;;;7.18;84.80
70133;BME280;57495;49.922;7.966;2023-04-09T06:01:16;100780.59;;;7.23;84.96
70133;BME280;57495;49.922;7.966;2023-04-09T06:03:18;100782.72;;;7.31;85.48
70133;BME280;57495;49.922;7.966;2023-04-09T06:05:20;100786.47;;;7.28;85.52
70133;BME280;57495;49.922;7.966;2023-04-09T06:07:22;100780.72;;;7.34;85.48
70133;BME280;57495;49.922;7.966;2023-04-09T06:09:23;100784.28;;;7.48;86.40
70133;BME280;57495;49.922;7.966;2023-04-09T06:11:25;100782.38;;;7.63;85.63
70133;BME280;57495;49.922;7.966;2023-04-09T06:13:26;100776.19;;;7.75;85.47
70133;BME280;57495;49.922;7.966;2023-04-09T06:15:28;100787.50;;;7.91;84.84
70133;BME280;57495;49.922;7.966;2023-04-09T06:17:29;100799.44;;;7.99;85.20
70133;BME280;57495;49.922;7.966;2023-04-09T06:19:31;100795.91;;;7.98;83.34
70133;BME280;57495;49.922;7.966;2023-04-09T06:21:33;100797.94;;;7.94;83.77
70133;BME280;57495;49.922;7.966;2023-04-09T06:23:35;100794.41;;;8.07;83.51
70133;BME280;57495;49.922;7.966;2023-04-09T06:25:37;100799.84;;;8.18;82.68
70133;BME280;57495;49.922;7.966;2023-04-09T06:27:38;100800.91;;;8.28;82.91
70133;BME280;57495;49.922;7.966;2023-04-09T06:29:39;100787.91;;;8.37;83.30
70133;BME280;57495;49.922;7.966;2023-04-09T06:31:41;100795.56;;;8.54;83.00
70133;BME280;57495;49.922;7.966;2023-04-09T06:33:42;100792.97;;;8.65;82.08
70133;BME280;57495;49.922;7.966;2023-04-09T06:35:44;100799.78;;;8.69;81.27
70133;BME280;57495;49.922;7.966;2023-04-09T06:37:46;100797.94;;;8.83;81.59
70133;BME280;57495;49.922;7.966;2023-04-09T06:39:48;100801.66;;;8.80;80.84
70133;BME280;57495;49.922;7.966;2023-04-09T06:41:50;100810.59;;;8.92;81.44
70133;BME280;57495;49.922;7.966;2023-04-09T06:43:51;100807.31;;;9.13;81.25
70133;BME280;57495;49.922;7.966;2023-04-09T06:45:53;100798.72;;;9.20;80.30
70133;BME280;57495;49.922;7.966;2023-04-09T06:47:54;100807.06;;;9.16;79.15
70133;BME280;57495;49.922;7.966;2023-04-09T06:49:56;100809.78;;;9.27;79.82
70133;BME280;57495;49.922;7.966;2023-04-09T06:51:57;100806.66;;;9.33;79.19
70133;BME280;57495;49.922;7.966;2023-04-09T06:54:00;100807.78;;;9.42;78.15
70133;BME280;57495;49.922;7.966;2023-04-09T06:56:01;100806.38;;;9.60;78.18
70133;BME280;57495;49.922;7.966;2023-04-09T06:58:03;100804.34;;;9.75;77.78
70133;BME280;57495;49.922;7.966;2023-04-09T07:00:06;100804.47;;;9.38;76.89
70133;BME280;57495;49.922;7.966;2023-04-09T07:02:07;100804.38;;;9.40;76.69
70133;BME280;57495;49.922;7.966;2023-04-09T07:04:09;100800.50;;;9.79;78.88
70133;BME280;57495;49.922;7.966;2023-04-09T07:06:10;100799.31;;;9.95;77.57
70133;BME280;57495;49.922;7.966;2023-04-09T07:08:12;100798.53;;;10.94;87.94
70133;BME280;57495;49.922;7.966;2023-04-09T07:10:15;100803.97;;;11.04;81.45
70133;BME280;57495;49.922;7.966;2023-04-09T07:12:25;100797.88;;;11.46;78.87
70133;BME280;57495;49.922;7.966;2023-04-09T07:14:26;100793.44;;;11.98;76.46
70133;BME280;57495;49.922;7.966;2023-04-09T07:16:28;100800.13;;;12.34;74.83
70133;BME280;57495;49.922;7.966;2023-04-09T07:18:29;100797.97;;;12.79;72.31
70133;BME280;57495;49.922;7.966;2023-04-09T07:20:30;100799.59;;;13.20;71.52
70133;BME280;57495;49.922;7.966;2023-04-09T07:22:34;100800.31;;;13.42;71.72
70133;BME280;57495;49.922;7.966;2023-04-09T07:24:36;100808.78;;;13.76;67.09
70133;BME280;57495;49.922;7.966;2023-04-09T07:26:39;100800.16;;;13.72;65.31
70133;BME280;57495;49.922;7.966;2023-04-09T07:28:40;100801.28;;;13.80;64.36
70133;BME280;57495;49.922;7.966;2023-04-09T07:30:42;100802.41;;;14.34;64.87
70133;BME280;57495;49.922;7.966;2023-04-09T07:32:45;100805.94;;;14.72;66.29
70133;BME280;57495;49.922;7.966;2023-04-09T07:34:46;100802.00;;;15.12;63.96
70133;BME280;57495;49.922;7.966;2023-04-09T07:36:48;100798.16;;;15.33;62.97
70133;BME280;57495;49.922;7.966;2023-04-09T07:38:49;100801.13;;;15.83;63.62
70133;BME280;57495;49.922;7.966;2023-04-09T07:40:51;100803.44;;;16.04;61.62
70133;BME280;57495;49.922;7.966;2023-04-09T07:42:54;100793.50;;;16.31;60.49
70133;BME280;57495;49.922;7.966;2023-04-09T07:44:57;100803.50;;;16.13;59.61
70133;BME280;57495;49.922;7.966;2023-04-09T07:46:58;100799.44;;;15.82;59.15
70133;BME280;57495;49.922;7.966;2023-04-09T07:49:00;100801.44;;;16.07;60.54
70133;BME280;57495;49.922;7.966;2023-04-09T07:51:01;100808.94;;;16.55;59.04
70133;BME280;57495;49.922;7.966;2023-04-09T07:53:04;100808.41;;;15.91;57.84
70133;BME280;57495;49.922;7.966;2023-04-09T07:55:06;100806.50;;;16.10;58.11
70133;BME280;57495;49.922;7.966;2023-04-09T07:57:07;100810.16;;;16.61;60.01
70133;BME280;57495;49.922;7.966;2023-04-09T07:59:10;100807.47;;;15.20;56.42
70133;BME280;57495;49.922;7.966;2023-04-09T08:01:11;100806.06;;;15.34;56.87
70133;BME280;57495;49.922;7.966;2023-04-09T08:03:13;100802.00;;;15.48;57.57
70133;BME280;57495;49.922;7.966;2023-04-09T08:05:14;100804.59;;;15.76;57.65
70133;BME280;57495;49.922;7.966;2023-04-09T08:07:16;100807.09;;;15.51;58.05
70133;BME280;57495;49.922;7.966;2023-04-09T08:09:17;100805.44;;;16.02;60.44
70133;BME280;57495;49.922;7.966;2023-04-09T08:11:19;100802.91;;;17.12;58.38
70133;BME280;57495;49.922;7.966;2023-04-09T08:13:24;100804.28;;;17.33;55.98
70133;BME280;57495;49.922;7.966;2023-04-09T08:15:27;100804.16;;;17.92;56.02
70133;BME280;57495;49.922;7.966;2023-04-09T08:17:28;100803.91;;;18.10;55.63
70133;BME280;57495;49.922;7.966;2023-04-09T08:19:30;100805.50;;;18.52;54.94
70133;BME280;57495;49.922;7.966;2023-04-09T08:21:31;100802.00;;;18.74;54.56
70133;BME280;57495;49.922;7.966;2023-04-09T08:23:32;100810.84;;;18.68;52.63
70133;BME280;57495;49.922;7.966;2023-04-09T08:25:34;100803.88;;;18.34;50.57
70133;BME280;57495;49.922;7.966;2023-04-09T08:27:35;100802.44;;;17.99;53.29
70133;BME280;57495;49.922;7.966;2023-04-09T08:29:38;100815.56;;;16.61;51.43
70133;BME280;57495;49.922;7.966;2023-04-09T08:31:43;100815.91;;;16.32;52.76
70133;BME280;57495;49.922;7.966;2023-04-09T08:33:44;100812.41;;;17.33;53.72
70133;BME280;57495;49.922;7.966;2023-04-09T08:35:46;100808.66;;;18.08;54.62
70133;BME280;57495;49.922;7.966;2023-04-09T08:37:47;100815.03;;;18.31;57.13
70133;BME280;57495;49.922;7.966;2023-04-09T08:39:49;100820.84;;;17.71;50.33
70133;BME280;57495;49.922;7.966;2023-04-09T08:41:51;100810.72;;;17.56;53.67
70133;BME280;57495;49.922;7.966;2023-04-09T08:43:53;100815.03;;;18.31;57.25
70133;BME280;57495;49.922;7.966;2023-04-09T08:45:55;100819.88;;;18.52;54.34
70133;BME280;57495;49.922;7.966;2023-04-09T08:48:01;100816.22;;;18.77;57.35
70133;BME280;57495;49.922;7.966;2023-04-09T08:50:03;100818.66;;;18.63;52.93
70133;BME280;57495;49.922;7.966;2023-04-09T08:52:05;100817.59;;;18.81;54.23
70133;BME280;57495;49.922;7.966;2023-04-09T08:54:06;100819.09;;;18.35;53.87
70133;BME280;57495;49.922;7.966;2023-04-09T08:56:08;100818.16;;;18.60;54.41
70133;BME280;57495;49.922;7.966;2023-04-09T08:58:09;100819.97;;;18.76;53.13
70133;BME280;57495;49.922;7.966;2023-04-09T09:00:12;100822.94;;;18.97;53.53
70133;BME280;57495;49.922;7.966;2023-04-09T09:02:13;100820.16;;;19.05;53.57
70133;BME280;57495;49.922;7.966;2023-04-09T09:04:16;100823.59;;;18.99;52.65
70133;BME280;57495;49.922;7.966;2023-04-09T09:06:20;100818.97;;;18.68;52.06
70133;BME280;57495;49.922;7.966;2023-04-09T09:08:23;100823.69;;;18.74;53.20
70133;BME280;57495;49.922;7.966;2023-04-09T09:10:35;100826.59;;;18.65;50.97
70133;BME280;57495;49.922;7.966;2023-04-09T09:12:38;100827.09;;;18.04;51.40
70133;BME280;57495;49.922;7.966;2023-04-09T09:14:40;100832.19;;;18.71;53.64
70133;BME280;57495;49.922;7.966;2023-04-09T09:16:43;100822.56;;;19.00;51.25
70133;BME280;57495;49.922;7.966;2023-04-09T09:18:45;100828.66;;;19.02;50.83
70133;BME280;57495;49.922;7.966;2023-04-09T09:20:48;100822.44;;;18.46;51.53
70133;BME280;57495;49.922;7.966;2023-04-09T09:22:51;100824.78;;;18.49;52.51
70133;BME280;57495;49.922;7.966;2023-04-09T09:24:53;100821.81;;;19.15;52.79
70133;BME280;57495;49.922;7.966;2023-04-09T09:26:54;100825.56;;;18.18;49.10
70133;BME280;57495;49.922;7.966;2023-04-09T09:28:57;100814.44;;;17.39;52.09
70133;BME280;57495;49.922;7.966;2023-04-09T09:31:07;100826.72;;;18.88;52.73
70133;BME280;57495;49.922;7.966;2023-04-09T09:33:09;100820.22;;;18.97;50.49
70133;BME280;57495;49.922;7.966;2023-04-09T09:35:11;100818.91;;;18.77;46.86
70133;BME280;57495;49.922;7.966;2023-04-09T09:37:26;100816.41;;;18.83;47.22
70133;BME280;57495;49.922;7.966;2023-04-09T09:39:41;100807.63;;;19.50;49.77
70133;BME280;57495;49.922;7.966;2023-04-09T09:41:43;100801.63;;;20.01;49.81
70133;BME280;57495;49.922;7.966;2023-04-09T09:43:45;100807.25;;;20.44;48.42
70133;BME280;57495;49.922;7.966;2023-04-09T09:45:47;100810.72;;;19.24;49.21
70133;BME280;57495;49.922;7.966;2023-04-09T09:47:50;100804.84;;;19.44;47.00
70133;BME280;57495;49.922;7.966;2023-04-09T09:49:52;100801.72;;;18.13;47.92
70133;BME280;57495;49.922;7.966;2023-04-09T09:51:55;100798.75;;;15.44;54.33
70133;BME280;57495;49.922;7.966;2023-04-09T09:54:01;100798.03;;;17.41;53.87
70133;BME280;57495;49.922;7.966;2023-04-09T09:56:04;100787.72;;;18.02;49.72
70133;BME280;57495;49.922;7.966;2023-04-09T09:58:08;100796.47;;;18.20;49.03
70133;BME280;57495;49.922;7.966;2023-04-09T10:00:13;100790.13;;;17.47;46.27
70133;BME280;57495;49.922;7.966;2023-04-09T10:02:18;100781.78;;;16.99;45.33
70133;BME280;57495;49.922;7.966;2023-04-09T10:04:20;100790.06;;;17.23;52.51
70133;BME280;57495;49.922;7.966;2023-04-09T10:06:23;100784.16;;;17.11;47.59
70133;BME280;57495;49.922;7.966;2023-04-09T10:08:25;100782.28;;;18.02;48.12
70133;BME280;57495;49.922;7.966;2023-04-09T10:10:30;100783.53;;;17.42;53.44
70133;BME280;57495;49.922;7.966;2023-04-09T10:12:31;100771.16;;;17.23;49.38
70133;BME280;57495;49.922;7.966;2023-04-09T10:14:34;100776.56;;;17.96;52.00
70133;BME280;57495;49.922;7.966;2023-04-09T10:16:36;100764.53;;;18.47;52.34
70133;BME280;57495;49.922;7.966;2023-04-09T10:18:38;100759.50;;;18.35;50.31
70133;BME280;57495;49.922;7.966;2023-04-09T10:20:45;100759.88;;;19.03;50.16
70133;BME280;57495;49.922;7.966;2023-04-09T10:22:49;100762.81;;;19.17;50.37
70133;BME280;57495;49.922;7.966;2023-04-09T10:24:51;100763.75;;;19.47;50.92
70133;BME280;57495;49.922;7.966;2023-04-09T10:26:58;100769.13;;;19.32;50.46
70133;BME280;57495;49.922;7.966;2023-04-09T10:29:10;100768.41;;;19.15;46.17
70133;BME280;57495;49.922;7.966;2023-04-09T10:31:13;100768.91;;;18.96;47.18
70133;BME280;57495;49.922;7.966;2023-04-09T10:33:16;100769.38;;;18.20;49.38
70133;BME280;57495;49.922;7.966;2023-04-09T10:35:26;100759.50;;;19.29;49.12
70133;BME280;57495;49.922;7.966;2023-04-09T10:37:28;100760.44;;;19.13;48.90
70133;BME280;57495;49.922;7.966;2023-04-09T10:39:30;100763.97;;;19.22;49.75
70133;BME280;57495;49.922;7.966;2023-04-09T10:41:32;100767.66;;;19.06;47.01
70133;BME280;57495;49.922;7.966;2023-04-09T10:43:36;100766.72;;;18.51;48.48
70133;BME280;57495;49.922;7.966;2023-04-09T10:45:41;100766.38;;;17.99;46.33
70133;BME280;57495;49.922;7.966;2023-04-09T10:47:42;100767.63;;;18.75;48.18